Hlavní strana
METAR-TAF:

METAR-TAF

Letiště :

Irkutsk, Rusko

zeměpisná šířka: 52-16N, zeměpisná délka: 104-19E, výška: 513 m

Aktuální stav počasí

Zpráva byla vytvořena před 28 minutami, v 05:00 UTC
Jižní vítr 6 kt
Teplota 26°C
Vlhkost vzduchu 42%
Tlak 1003 hPa
Viditelnost 10 km a více
Žádná oblačnost pod 1500 m, nevyskytují se cumulonimby.

METAR: UIII 200500Z 17003MPS CAVOK 26/12 Q1003 R12/60D NOSIG RMK QFE710/0947

Čas: 13:28 (05:28 UTC)

Předpověď počasí

Zpráva byla vytvořena před 3 hodinami a 28 minutami, v 02:00 UTC
Předpověď platná od 20 v 03 UTC do 21 v 03 UTC
Jihovýchodní vítr 10 kt
Viditelnost 10 km a více
Polojasno ve výšce 2000 ft, Cumulonimbus.
Dočasný
od 20 v 03 UTC do 21 v 03 UTC
vítr z různých směrů 19 kt
bouřka, slabý déšť

TAF: UIII 200200Z 2003/2103 14005MPS 9999 SCT020CB TEMPO 2003/2103 VRB10MPS -TSRA

Stav a předpovědi počasí z více než 4 000 letišť (zprávy METAR a TAF).

Červené a žluté tečky na mapě představují dostupné meteorologické stanice.

Když kurzor umístíte na tečku, zobrazí se název stanice.

Pak kliknutím zobrazíte stav a předpověď počasí.

Chcete-li změnit mapu, kliknutím na zelené tlačítko se znaménkem +mapu přiblížíte, kliknutím na zelené tlačítko se znaménkem – mapu oddálíte a kliknutím na zelené šipky přejdete na sousední mapy.


METAR-TAF: